sensor_id;sensor_type;location;lat;lon;timestamp;P1;durP1;ratioP1;P2;durP2;ratioP2
35223;SDS011;21367;51.930;8.112;2023-12-04T00:03:50;73.57;;;22.83;;
35223;SDS011;21367;51.930;8.112;2023-12-04T00:13:58;63.88;;;21.63;;
35223;SDS011;21367;51.930;8.112;2023-12-04T00:19:04;62.45;;;20.98;;
35223;SDS011;21367;51.930;8.112;2023-12-04T00:24:08;71.20;;;21.77;;
35223;SDS011;21367;51.930;8.112;2023-12-04T00:29:12;65.78;;;20.25;;
35223;SDS011;21367;51.930;8.112;2023-12-04T00:34:18;72.75;;;23.63;;
35223;SDS011;21367;51.930;8.112;2023-12-04T00:39:22;71.30;;;24.13;;
35223;SDS011;21367;51.930;8.112;2023-12-04T00:44:25;70.25;;;23.30;;
35223;SDS011;21367;51.930;8.112;2023-12-04T00:49:32;69.72;;;24.17;;
35223;SDS011;21367;51.930;8.112;2023-12-04T00:59:41;71.40;;;20.97;;
35223;SDS011;21367;51.930;8.112;2023-12-04T01:04:47;65.03;;;22.50;;
35223;SDS011;21367;51.930;8.112;2023-12-04T01:09:51;66.95;;;22.40;;
35223;SDS011;21367;51.930;8.112;2023-12-04T01:14:55;60.38;;;20.63;;
35223;SDS011;21367;51.930;8.112;2023-12-04T01:20:02;66.68;;;20.90;;
35223;SDS011;21367;51.930;8.112;2023-12-04T01:25:06;66.28;;;22.15;;
35223;SDS011;21367;51.930;8.112;2023-12-04T01:30:11;61.13;;;20.33;;
35223;SDS011;21367;51.930;8.112;2023-12-04T01:35:18;53.15;;;20.17;;
35223;SDS011;21367;51.930;8.112;2023-12-04T01:40:21;55.95;;;19.65;;
35223;SDS011;21367;51.930;8.112;2023-12-04T01:45:25;56.67;;;20.00;;
35223;SDS011;21367;51.930;8.112;2023-12-04T01:50:31;61.28;;;20.65;;
35223;SDS011;21367;51.930;8.112;2023-12-04T01:55:35;58.33;;;20.23;;
35223;SDS011;21367;51.930;8.112;2023-12-04T02:00:40;54.27;;;18.83;;
35223;SDS011;21367;51.930;8.112;2023-12-04T02:05:46;55.22;;;19.52;;
35223;SDS011;21367;51.930;8.112;2023-12-04T02:10:50;50.33;;;18.75;;
35223;SDS011;21367;51.930;8.112;2023-12-04T02:15:54;50.30;;;18.15;;
35223;SDS011;21367;51.930;8.112;2023-12-04T02:21:04;47.05;;;17.35;;
35223;SDS011;21367;51.930;8.112;2023-12-04T02:26:12;61.65;;;17.65;;
35223;SDS011;21367;51.930;8.112;2023-12-04T02:31:19;49.83;;;18.58;;
35223;SDS011;21367;51.930;8.112;2023-12-04T02:41:33;49.55;;;17.15;;
35223;SDS011;21367;51.930;8.112;2023-12-04T02:46:37;48.08;;;17.10;;
35223;SDS011;21367;51.930;8.112;2023-12-04T02:51:41;44.97;;;17.02;;
35223;SDS011;21367;51.930;8.112;2023-12-04T02:56:47;43.78;;;16.35;;
35223;SDS011;21367;51.930;8.112;2023-12-04T03:06:54;45.28;;;15.73;;
35223;SDS011;21367;51.930;8.112;2023-12-04T03:12:00;48.85;;;17.30;;
35223;SDS011;21367;51.930;8.112;2023-12-04T03:17:05;43.80;;;16.48;;
35223;SDS011;21367;51.930;8.112;2023-12-04T03:22:09;42.58;;;17.25;;
35223;SDS011;21367;51.930;8.112;2023-12-04T03:27:15;43.85;;;16.48;;
35223;SDS011;21367;51.930;8.112;2023-12-04T03:37:22;42.53;;;16.13;;
35223;SDS011;21367;51.930;8.112;2023-12-04T03:42:28;43.65;;;16.30;;
35223;SDS011;21367;51.930;8.112;2023-12-04T03:52:35;40.78;;;14.85;;
35223;SDS011;21367;51.930;8.112;2023-12-04T03:57:41;41.78;;;17.02;;
35223;SDS011;21367;51.930;8.112;2023-12-04T04:02:45;42.75;;;17.55;;
35223;SDS011;21367;51.930;8.112;2023-12-04T04:07:49;37.67;;;15.45;;
35223;SDS011;21367;51.930;8.112;2023-12-04T04:12:55;41.17;;;15.10;;
35223;SDS011;21367;51.930;8.112;2023-12-04T04:23:02;40.58;;;14.75;;
35223;SDS011;21367;51.930;8.112;2023-12-04T04:28:08;41.20;;;15.25;;
35223;SDS011;21367;51.930;8.112;2023-12-04T04:38:15;38.60;;;14.70;;
35223;SDS011;21367;51.930;8.112;2023-12-04T04:43:21;36.25;;;14.40;;
35223;SDS011;21367;51.930;8.112;2023-12-04T04:48:25;38.33;;;15.25;;
35223;SDS011;21367;51.930;8.112;2023-12-04T04:53:29;38.53;;;15.90;;
35223;SDS011;21367;51.930;8.112;2023-12-04T04:58:35;35.92;;;13.93;;
35223;SDS011;21367;51.930;8.112;2023-12-04T05:08:42;38.72;;;15.10;;
35223;SDS011;21367;51.930;8.112;2023-12-04T05:13:49;37.03;;;14.50;;
35223;SDS011;21367;51.930;8.112;2023-12-04T05:18:52;37.97;;;14.05;;
35223;SDS011;21367;51.930;8.112;2023-12-04T05:23:56;38.13;;;13.43;;
35223;SDS011;21367;51.930;8.112;2023-12-04T05:29:02;32.38;;;13.32;;
35223;SDS011;21367;51.930;8.112;2023-12-04T05:34:06;38.95;;;13.38;;
35223;SDS011;21367;51.930;8.112;2023-12-04T05:39:10;32.92;;;13.13;;
35223;SDS011;21367;51.930;8.112;2023-12-04T05:44:16;42.30;;;14.43;;
35223;SDS011;21367;51.930;8.112;2023-12-04T05:49:20;33.67;;;13.38;;
35223;SDS011;21367;51.930;8.112;2023-12-04T05:54:23;32.17;;;12.63;;
35223;SDS011;21367;51.930;8.112;2023-12-04T05:59:30;32.83;;;13.32;;
35223;SDS011;21367;51.930;8.112;2023-12-04T06:04:33;35.80;;;12.80;;
35223;SDS011;21367;51.930;8.112;2023-12-04T06:09:37;34.72;;;13.07;;
35223;SDS011;21367;51.930;8.112;2023-12-04T06:14:43;31.42;;;12.02;;
35223;SDS011;21367;51.930;8.112;2023-12-04T06:24:51;31.58;;;12.65;;
35223;SDS011;21367;51.930;8.112;2023-12-04T06:29:59;33.70;;;11.88;;
35223;SDS011;21367;51.930;8.112;2023-12-04T06:35:03;37.13;;;12.73;;
35223;SDS011;21367;51.930;8.112;2023-12-04T06:40:08;32.83;;;11.95;;
35223;SDS011;21367;51.930;8.112;2023-12-04T06:45:15;34.30;;;12.27;;
35223;SDS011;21367;51.930;8.112;2023-12-04T06:50:20;38.47;;;13.70;;
35223;SDS011;21367;51.930;8.112;2023-12-04T06:55:23;36.30;;;12.70;;
35223;SDS011;21367;51.930;8.112;2023-12-04T07:00:29;40.63;;;13.77;;
35223;SDS011;21367;51.930;8.112;2023-12-04T07:05:33;40.80;;;13.25;;
35223;SDS011;21367;51.930;8.112;2023-12-04T07:10:37;33.90;;;12.82;;
35223;SDS011;21367;51.930;8.112;2023-12-04T07:15:43;26.95;;;11.68;;
35223;SDS011;21367;51.930;8.112;2023-12-04T07:20:47;26.65;;;10.18;;
35223;SDS011;21367;51.930;8.112;2023-12-04T07:25:51;36.45;;;12.70;;
35223;SDS011;21367;51.930;8.112;2023-12-04T07:30:57;31.83;;;12.85;;
35223;SDS011;21367;51.930;8.112;2023-12-04T07:36:02;37.95;;;12.60;;
35223;SDS011;21367;51.930;8.112;2023-12-04T07:41:06;38.80;;;12.70;;
35223;SDS011;21367;51.930;8.112;2023-12-04T07:46:13;37.30;;;13.68;;
35223;SDS011;21367;51.930;8.112;2023-12-04T07:51:16;29.63;;;12.35;;
35223;SDS011;21367;51.930;8.112;2023-12-04T07:56:22;38.22;;;13.93;;
35223;SDS011;21367;51.930;8.112;2023-12-04T08:01:28;29.27;;;11.55;;
35223;SDS011;21367;51.930;8.112;2023-12-04T08:11:35;24.35;;;10.20;;
35223;SDS011;21367;51.930;8.112;2023-12-04T08:16:42;28.00;;;11.57;;
35223;SDS011;21367;51.930;8.112;2023-12-04T08:21:45;25.42;;;10.95;;
35223;SDS011;21367;51.930;8.112;2023-12-04T08:26:49;27.88;;;10.95;;
35223;SDS011;21367;51.930;8.112;2023-12-04T08:31:56;27.92;;;12.15;;
35223;SDS011;21367;51.930;8.112;2023-12-04T08:36:59;23.80;;;10.07;;
35223;SDS011;21367;51.930;8.112;2023-12-04T09:07:18;28.15;;;10.75;;
35223;SDS011;21367;51.930;8.112;2023-12-04T09:12:57;35.33;;;12.32;;
35223;SDS011;21367;51.930;8.112;2023-12-04T09:18:33;28.02;;;11.25;;
35223;SDS011;21367;51.930;8.112;2023-12-04T09:29:13;30.88;;;11.38;;
35223;SDS011;21367;51.930;8.112;2023-12-04T09:34:28;24.00;;;10.15;;
35223;SDS011;21367;51.930;8.112;2023-12-04T09:40:09;29.77;;;10.63;;
35223;SDS011;21367;51.930;8.112;2023-12-04T09:45:55;23.83;;;9.98;;
35223;SDS011;21367;51.930;8.112;2023-12-04T09:51:27;28.17;;;10.70;;
35223;SDS011;21367;51.930;8.112;2023-12-04T09:56:59;35.50;;;11.85;;
35223;SDS011;21367;51.930;8.112;2023-12-04T10:02:13;28.67;;;12.27;;
35223;SDS011;21367;51.930;8.112;2023-12-04T10:07:26;28.15;;;12.10;;
35223;SDS011;21367;51.930;8.112;2023-12-04T10:12:33;32.50;;;11.55;;
35223;SDS011;21367;51.930;8.112;2023-12-04T10:17:40;28.60;;;10.95;;
35223;SDS011;21367;51.930;8.112;2023-12-04T10:22:53;27.95;;;11.00;;
35223;SDS011;21367;51.930;8.112;2023-12-04T10:36:10;34.42;;;12.10;;
35223;SDS011;21367;51.930;8.112;2023-12-04T10:39:58;38.05;;;12.10;;
35223;SDS011;21367;51.930;8.112;2023-12-04T10:45:14;28.65;;;11.30;;
35223;SDS011;21367;51.930;8.112;2023-12-04T10:50:28;22.53;;;10.47;;
35223;SDS011;21367;51.930;8.112;2023-12-04T10:55:37;27.63;;;10.63;;
35223;SDS011;21367;51.930;8.112;2023-12-04T11:00:51;26.30;;;9.98;;
35223;SDS011;21367;51.930;8.112;2023-12-04T11:06:07;27.92;;;10.23;;
35223;SDS011;21367;51.930;8.112;2023-12-04T11:11:19;23.13;;;10.10;;
35223;SDS011;21367;51.930;8.112;2023-12-04T11:16:31;21.80;;;8.80;;
35223;SDS011;21367;51.930;8.112;2023-12-04T11:21:41;22.73;;;9.73;;
35223;SDS011;21367;51.930;8.112;2023-12-04T11:26:46;22.00;;;9.10;;
35223;SDS011;21367;51.930;8.112;2023-12-04T11:31:53;23.10;;;9.68;;
35223;SDS011;21367;51.930;8.112;2023-12-04T11:36:59;19.88;;;8.65;;
35223;SDS011;21367;51.930;8.112;2023-12-04T11:42:21;18.35;;;8.57;;
35223;SDS011;21367;51.930;8.112;2023-12-04T11:47:54;25.75;;;10.35;;
35223;SDS011;21367;51.930;8.112;2023-12-04T11:53:09;21.33;;;9.75;;
35223;SDS011;21367;51.930;8.112;2023-12-04T11:58:26;23.08;;;10.38;;
35223;SDS011;21367;51.930;8.112;2023-12-04T12:03:36;33.33;;;11.13;;
35223;SDS011;21367;51.930;8.112;2023-12-04T12:08:46;23.83;;;9.63;;
35223;SDS011;21367;51.930;8.112;2023-12-04T12:13:52;21.40;;;8.88;;
35223;SDS011;21367;51.930;8.112;2023-12-04T12:19:00;30.27;;;10.68;;
35223;SDS011;21367;51.930;8.112;2023-12-04T12:24:05;23.75;;;10.20;;
35223;SDS011;21367;51.930;8.112;2023-12-04T12:29:10;22.27;;;9.83;;
35223;SDS011;21367;51.930;8.112;2023-12-04T12:34:16;26.77;;;11.43;;
35223;SDS011;21367;51.930;8.112;2023-12-04T12:39:21;29.30;;;11.20;;
35223;SDS011;21367;51.930;8.112;2023-12-04T12:44:25;24.88;;;10.70;;
35223;SDS011;21367;51.930;8.112;2023-12-04T12:49:32;23.00;;;9.88;;
35223;SDS011;21367;51.930;8.112;2023-12-04T12:54:37;22.27;;;9.90;;
35223;SDS011;21367;51.930;8.112;2023-12-04T12:59:42;23.80;;;9.52;;
35223;SDS011;21367;51.930;8.112;2023-12-04T13:04:49;23.35;;;9.43;;
35223;SDS011;21367;51.930;8.112;2023-12-04T13:09:54;23.88;;;10.35;;
35223;SDS011;21367;51.930;8.112;2023-12-04T13:14:58;22.65;;;9.20;;
35223;SDS011;21367;51.930;8.112;2023-12-04T13:20:08;23.67;;;10.95;;
35223;SDS011;21367;51.930;8.112;2023-12-04T13:25:16;26.40;;;11.60;;
35223;SDS011;21367;51.930;8.112;2023-12-04T13:30:23;26.50;;;11.50;;
35223;SDS011;21367;51.930;8.112;2023-12-04T13:35:35;24.60;;;10.60;;
35223;SDS011;21367;51.930;8.112;2023-12-04T13:40:39;31.88;;;11.23;;
35223;SDS011;21367;51.930;8.112;2023-12-04T13:45:50;25.83;;;11.15;;
35223;SDS011;21367;51.930;8.112;2023-12-04T13:50:58;27.20;;;11.70;;
35223;SDS011;21367;51.930;8.112;2023-12-04T13:56:03;26.25;;;10.38;;
35223;SDS011;21367;51.930;8.112;2023-12-04T14:01:26;26.65;;;11.25;;
35223;SDS011;21367;51.930;8.112;2023-12-04T14:06:37;29.98;;;11.82;;
35223;SDS011;21367;51.930;8.112;2023-12-04T14:11:51;29.77;;;10.95;;
35223;SDS011;21367;51.930;8.112;2023-12-04T14:16:56;34.78;;;13.80;;
35223;SDS011;21367;51.930;8.112;2023-12-04T14:22:07;29.60;;;12.73;;
35223;SDS011;21367;51.930;8.112;2023-12-04T14:27:13;36.05;;;14.15;;
35223;SDS011;21367;51.930;8.112;2023-12-04T14:37:32;21.83;;;9.45;;
35223;SDS011;21367;51.930;8.112;2023-12-04T14:42:51;26.42;;;11.00;;
35223;SDS011;21367;51.930;8.112;2023-12-04T14:48:04;26.27;;;11.70;;
35223;SDS011;21367;51.930;8.112;2023-12-04T14:53:27;24.88;;;10.95;;
35223;SDS011;21367;51.930;8.112;2023-12-04T14:58:57;31.02;;;10.75;;
35223;SDS011;21367;51.930;8.112;2023-12-04T15:04:28;25.73;;;11.18;;
35223;SDS011;21367;51.930;8.112;2023-12-04T15:10:13;28.58;;;12.40;;
35223;SDS011;21367;51.930;8.112;2023-12-04T15:15:42;28.20;;;11.88;;
35223;SDS011;21367;51.930;8.112;2023-12-04T15:21:15;29.55;;;12.48;;
35223;SDS011;21367;51.930;8.112;2023-12-04T15:31:48;31.77;;;13.00;;
35223;SDS011;21367;51.930;8.112;2023-12-04T15:36:56;33.53;;;13.85;;
35223;SDS011;21367;51.930;8.112;2023-12-04T15:42:08;34.17;;;14.32;;
35223;SDS011;21367;51.930;8.112;2023-12-04T15:47:34;31.75;;;13.18;;
35223;SDS011;21367;51.930;8.112;2023-12-04T15:52:43;32.35;;;14.05;;
35223;SDS011;21367;51.930;8.112;2023-12-04T15:57:59;32.80;;;14.20;;
35223;SDS011;21367;51.930;8.112;2023-12-04T16:03:29;33.75;;;14.23;;
35223;SDS011;21367;51.930;8.112;2023-12-04T16:09:05;32.20;;;13.73;;
35223;SDS011;21367;51.930;8.112;2023-12-04T16:14:17;33.28;;;13.48;;
35223;SDS011;21367;51.930;8.112;2023-12-04T16:19:24;30.92;;;12.40;;
35223;SDS011;21367;51.930;8.112;2023-12-04T16:24:30;32.72;;;12.57;;
35223;SDS011;21367;51.930;8.112;2023-12-04T16:29:37;25.00;;;11.73;;
35223;SDS011;21367;51.930;8.112;2023-12-04T16:34:41;29.02;;;12.48;;
35223;SDS011;21367;51.930;8.112;2023-12-04T16:39:45;30.90;;;11.82;;
35223;SDS011;21367;51.930;8.112;2023-12-04T16:44:52;28.52;;;12.48;;
35223;SDS011;21367;51.930;8.112;2023-12-04T16:49:56;31.25;;;12.60;;
35223;SDS011;21367;51.930;8.112;2023-12-04T16:55:04;31.45;;;11.50;;
35223;SDS011;21367;51.930;8.112;2023-12-04T17:00:15;32.80;;;10.80;;
35223;SDS011;21367;51.930;8.112;2023-12-04T17:05:19;26.90;;;11.43;;
35223;SDS011;21367;51.930;8.112;2023-12-04T17:10:25;29.17;;;11.50;;
35223;SDS011;21367;51.930;8.112;2023-12-04T17:15:32;27.13;;;11.25;;
35223;SDS011;21367;51.930;8.112;2023-12-04T17:20:36;23.20;;;10.65;;
35223;SDS011;21367;51.930;8.112;2023-12-04T17:25:40;29.88;;;12.77;;
35223;SDS011;21367;51.930;8.112;2023-12-04T17:30:47;26.25;;;12.15;;
35223;SDS011;21367;51.930;8.112;2023-12-04T17:35:54;29.25;;;12.13;;
35223;SDS011;21367;51.930;8.112;2023-12-04T17:40:59;27.47;;;11.27;;
35223;SDS011;21367;51.930;8.112;2023-12-04T17:46:07;25.77;;;10.20;;
35223;SDS011;21367;51.930;8.112;2023-12-04T17:51:14;25.95;;;11.15;;
35223;SDS011;21367;51.930;8.112;2023-12-04T17:56:18;28.35;;;12.02;;
35223;SDS011;21367;51.930;8.112;2023-12-04T18:01:24;28.08;;;10.10;;
35223;SDS011;21367;51.930;8.112;2023-12-04T18:06:28;23.13;;;10.98;;
35223;SDS011;21367;51.930;8.112;2023-12-04T18:11:34;31.13;;;11.90;;
35223;SDS011;21367;51.930;8.112;2023-12-04T18:16:45;28.08;;;12.10;;
35223;SDS011;21367;51.930;8.112;2023-12-04T18:21:51;27.02;;;11.77;;
35223;SDS011;21367;51.930;8.112;2023-12-04T18:26:57;29.65;;;12.30;;
35223;SDS011;21367;51.930;8.112;2023-12-04T18:32:06;27.08;;;11.90;;
35223;SDS011;21367;51.930;8.112;2023-12-04T18:37:13;26.52;;;10.90;;
35223;SDS011;21367;51.930;8.112;2023-12-04T18:42:28;27.50;;;12.77;;
35223;SDS011;21367;51.930;8.112;2023-12-04T18:47:36;29.42;;;11.30;;
35223;SDS011;21367;51.930;8.112;2023-12-04T18:52:46;27.70;;;11.68;;
35223;SDS011;21367;51.930;8.112;2023-12-04T18:57:52;30.42;;;12.43;;
35223;SDS011;21367;51.930;8.112;2023-12-04T19:03:00;31.60;;;13.20;;
35223;SDS011;21367;51.930;8.112;2023-12-04T19:08:04;32.70;;;14.05;;
35223;SDS011;21367;51.930;8.112;2023-12-04T19:13:08;34.28;;;13.40;;
35223;SDS011;21367;51.930;8.112;2023-12-04T19:18:15;36.53;;;16.15;;
35223;SDS011;21367;51.930;8.112;2023-12-04T19:23:19;35.55;;;15.80;;
35223;SDS011;21367;51.930;8.112;2023-12-04T19:28:22;36.15;;;16.02;;
35223;SDS011;21367;51.930;8.112;2023-12-04T19:33:32;35.38;;;15.40;;
35223;SDS011;21367;51.930;8.112;2023-12-04T19:38:36;31.38;;;13.88;;
35223;SDS011;21367;51.930;8.112;2023-12-04T19:49:37;35.10;;;14.77;;
35223;SDS011;21367;51.930;8.112;2023-12-04T19:54:44;35.00;;;14.82;;
35223;SDS011;21367;51.930;8.112;2023-12-04T19:59:48;31.52;;;14.23;;
35223;SDS011;21367;51.930;8.112;2023-12-04T20:04:55;33.38;;;14.52;;
35223;SDS011;21367;51.930;8.112;2023-12-04T20:09:58;34.15;;;14.23;;
35223;SDS011;21367;51.930;8.112;2023-12-04T20:15:03;34.85;;;15.27;;
35223;SDS011;21367;51.930;8.112;2023-12-04T20:20:11;36.15;;;15.15;;
35223;SDS011;21367;51.930;8.112;2023-12-04T20:25:16;34.47;;;15.05;;
35223;SDS011;21367;51.930;8.112;2023-12-04T20:30:20;30.17;;;13.68;;
35223;SDS011;21367;51.930;8.112;2023-12-04T20:35:28;32.53;;;13.93;;
35223;SDS011;21367;51.930;8.112;2023-12-04T20:40:36;30.85;;;13.57;;
35223;SDS011;21367;51.930;8.112;2023-12-04T20:45:40;31.17;;;13.05;;
35223;SDS011;21367;51.930;8.112;2023-12-04T20:50:50;33.13;;;13.23;;
35223;SDS011;21367;51.930;8.112;2023-12-04T20:55:54;27.25;;;12.90;;
35223;SDS011;21367;51.930;8.112;2023-12-04T21:00:58;33.53;;;13.48;;
35223;SDS011;21367;51.930;8.112;2023-12-04T21:06:06;33.72;;;12.40;;
35223;SDS011;21367;51.930;8.112;2023-12-04T21:11:11;28.65;;;13.23;;
35223;SDS011;21367;51.930;8.112;2023-12-04T21:16:15;32.75;;;13.43;;
35223;SDS011;21367;51.930;8.112;2023-12-04T21:21:22;30.17;;;13.68;;
35223;SDS011;21367;51.930;8.112;2023-12-04T21:26:27;32.40;;;13.15;;
35223;SDS011;21367;51.930;8.112;2023-12-04T21:31:32;32.93;;;14.07;;
35223;SDS011;21367;51.930;8.112;2023-12-04T21:36:38;38.03;;;15.18;;
35223;SDS011;21367;51.930;8.112;2023-12-04T21:41:42;30.00;;;12.93;;
35223;SDS011;21367;51.930;8.112;2023-12-04T21:46:46;33.70;;;13.80;;
35223;SDS011;21367;51.930;8.112;2023-12-04T21:51:53;29.88;;;13.70;;
35223;SDS011;21367;51.930;8.112;2023-12-04T21:56:57;33.83;;;13.70;;
35223;SDS011;21367;51.930;8.112;2023-12-04T22:02:00;35.67;;;14.35;;
35223;SDS011;21367;51.930;8.112;2023-12-04T22:07:07;31.00;;;14.57;;
35223;SDS011;21367;51.930;8.112;2023-12-04T22:12:11;29.05;;;13.02;;
35223;SDS011;21367;51.930;8.112;2023-12-04T22:17:15;29.63;;;13.45;;
35223;SDS011;21367;51.930;8.112;2023-12-04T22:22:21;31.58;;;14.70;;
35223;SDS011;21367;51.930;8.112;2023-12-04T22:27:25;36.13;;;15.35;;
35223;SDS011;21367;51.930;8.112;2023-12-04T22:32:30;30.42;;;14.57;;
35223;SDS011;21367;51.930;8.112;2023-12-04T22:37:36;28.80;;;14.02;;
35223;SDS011;21367;51.930;8.112;2023-12-04T22:42:40;31.55;;;14.10;;
35223;SDS011;21367;51.930;8.112;2023-12-04T22:47:46;34.50;;;13.07;;
35223;SDS011;21367;51.930;8.112;2023-12-04T22:52:53;29.70;;;13.88;;
35223;SDS011;21367;51.930;8.112;2023-12-04T22:57:56;27.65;;;14.45;;
35223;SDS011;21367;51.930;8.112;2023-12-04T23:03:00;31.42;;;14.32;;
35223;SDS011;21367;51.930;8.112;2023-12-04T23:08:07;40.50;;;13.68;;
35223;SDS011;21367;51.930;8.112;2023-12-04T23:13:11;35.20;;;13.80;;
35223;SDS011;21367;51.930;8.112;2023-12-04T23:18:14;37.47;;;14.57;;
35223;SDS011;21367;51.930;8.112;2023-12-04T23:23:21;29.67;;;12.73;;
35223;SDS011;21367;51.930;8.112;2023-12-04T23:28:24;31.98;;;14.10;;
35223;SDS011;21367;51.930;8.112;2023-12-04T23:33:28;33.03;;;13.77;;
35223;SDS011;21367;51.930;8.112;2023-12-04T23:38:35;31.45;;;13.57;;
35223;SDS011;21367;51.930;8.112;2023-12-04T23:43:39;32.85;;;14.43;;
35223;SDS011;21367;51.930;8.112;2023-12-04T23:48:43;25.98;;;13.55;;
35223;SDS011;21367;51.930;8.112;2023-12-04T23:53:49;31.33;;;14.05;;
35223;SDS011;21367;51.930;8.112;2023-12-04T23:58:53;29.63;;;13.55;;
